Time;durP1;ratioP1;P1;durP2;ratioP2;P2;SDS_P1;SDS_P2;PMS_P1;PMS_P2;Temp;Humidity;BMP_temperature;BMP_pressure;BME280_temperature;BME280_humidity;BME280_pressure;Samples;Min_cycle;Max_cycle;Signal;HPM_P1;HPM_P2
2021/12/10 00:01:51;;;;;;;10.23;7.38;;;19.70;39.80;;;23.41;26.58;99850.75;5094422;28;20403;-76
2021/12/10 00:04:29;;;;;;;10.70;8.43;;;19.70;39.80;;;23.40;26.57;99844.56;5095088;28;20060;-76
2021/12/10 00:07:01;;;;;;;11.43;7.90;;;19.70;39.80;;;23.42;26.52;99845.28;5095447;28;20047;-77
2021/12/10 00:09:35;;;;;;;12.50;8.25;;;19.70;39.80;;;23.43;26.60;99843.47;5094966;28;20399;-76
2021/12/10 00:12:12;;;;;;;11.75;8.32;;;19.70;39.80;;;23.41;26.32;99834.75;5095607;28;20047;-76
2021/12/10 00:14:38;;;;;;;11.77;8.43;;;19.70;39.80;;;23.43;26.58;99830.94;5113215;28;20079;-76
2021/12/10 00:17:08;;;;;;;12.57;8.10;;;19.70;39.80;;;23.40;26.50;99819.72;5093288;28;20059;-76
2021/12/10 00:19:40;;;;;;;10.77;7.93;;;19.70;39.80;;;23.44;26.40;99826.47;5093145;28;20051;-76
2021/12/10 00:22:36;;;;;;;10.73;7.95;;;19.70;39.80;;;23.42;26.34;99831.94;5095688;28;20437;-76
2021/12/10 00:25:09;;;;;;;10.85;7.72;;;19.70;39.80;;;23.42;26.32;99820.41;5095070;28;20050;-76
2021/12/10 00:27:36;;;;;;;10.20;7.75;;;19.70;39.80;;;23.42;26.74;99820.41;5092691;28;20487;-77
2021/12/10 00:30:19;;;;;;;11.57;8.75;;;19.70;39.80;;;23.41;26.57;99810.75;5094729;28;20043;-76
2021/12/10 00:33:01;;;;;;;12.63;8.27;;;19.70;39.80;;;23.42;26.49;99813.28;5114287;28;20051;-76
2021/12/10 00:35:31;;;;;;;9.95;7.40;;;19.70;39.80;;;23.43;26.65;99811.44;5116549;28;20052;-77
2021/12/10 00:37:57;;;;;;;10.35;7.25;;;19.70;39.80;;;23.42;26.46;99815.09;5097280;28;20495;-76
2021/12/10 00:40:26;;;;;;;11.35;8.25;;;19.70;39.80;;;23.38;26.49;99797.69;5096260;28;20044;-76
2021/12/10 00:42:53;;;;;;;10.40;7.63;;;19.70;39.80;;;23.41;26.55;99795.56;5080577;28;20055;-76
2021/12/10 00:45:20;;;;;;;8.23;7.05;;;19.70;39.80;;;23.39;26.52;99792.19;5097176;28;20054;-76
2021/12/10 00:47:47;;;;;;;9.60;7.47;;;19.70;39.80;;;23.42;26.44;99791.94;5096584;28;20101;-76
2021/12/10 00:50:19;;;;;;;11.52;8.57;;;19.70;39.70;;;23.41;26.62;99787.56;5098124;28;20506;-76
2021/12/10 00:52:45;;;;;;;11.55;8.38;;;19.70;39.80;;;23.41;26.53;99776.06;5112942;28;20051;-76
2021/12/10 00:55:12;;;;;;;10.27;7.63;;;19.70;39.70;;;23.39;26.59;99778.00;5097473;28;20055;-76
2021/12/10 00:57:39;;;;;;;11.10;8.15;;;19.70;39.80;;;23.38;26.40;99771.84;5079939;28;20048;-76
2021/12/10 01:00:16;;;;;;;12.40;8.13;;;19.70;39.80;;;23.38;26.48;99773.66;5115996;28;20403;-76
2021/12/10 01:02:42;;;;;;;11.00;8.30;;;19.70;39.70;;;23.41;26.51;99773.41;5097532;28;20118;-76
2021/12/10 01:05:11;;;;;;;12.75;8.30;;;19.70;39.70;;;23.39;26.48;99768.19;5096501;28;20052;-76
2021/12/10 01:07:37;;;;;;;11.45;7.57;;;19.80;39.80;;;23.40;26.52;99772.53;5115864;28;20055;-76
2021/12/10 01:10:42;;;;;;;11.27;8.02;;;19.70;39.80;;;23.39;26.52;99764.66;5098058;28;20043;-77
2021/12/10 01:13:13;;;;;;;10.55;7.32;;;19.70;39.80;;;23.43;26.72;99766.09;5098161;28;20048;-77
2021/12/10 01:16:12;;;;;;;;;;;19.70;39.80;;;23.52;26.29;99759.91;5096637;28;20048;-76
2021/12/10 01:24:49;;;;;;;10.52;7.20;;;19.70;39.70;;;23.43;26.56;99771.44;5115790;28;20425;-76
2021/12/10 01:27:33;;;;;;;11.23;7.63;;;19.70;39.70;;;23.39;26.47;99764.66;5100410;28;20059;-76
2021/12/10 01:30:24;;;;;;;10.10;7.03;;;19.70;39.70;;;23.36;26.48;99752.47;5100227;28;20128;-76
2021/12/10 01:32:57;;;;;;;9.88;7.40;;;19.70;39.70;;;23.37;26.63;99754.16;5096835;28;20502;-76
2021/12/10 01:35:53;;;;;;;11.05;7.82;;;19.70;39.70;;;23.41;26.66;99755.56;5097161;28;20070;-77
2021/12/10 01:38:20;;;;;;;11.57;8.05;;;19.70;39.80;;;23.42;26.44;99754.59;5097840;28;20158;-77
2021/12/10 01:40:54;;;;;;;10.43;7.57;;;19.70;39.80;;;23.38;26.55;99744.31;5097130;28;20564;-76
2021/12/10 01:43:23;;;;;;;10.93;7.85;;;19.70;39.80;;;23.41;26.55;99739.56;5097645;28;20411;-77
2021/12/10 01:46:01;;;;;;;11.30;7.95;;;19.70;39.80;;;23.40;26.38;99739.69;5097162;28;20048;-77
2021/12/10 01:48:39;;;;;;;10.55;7.75;;;19.70;39.80;;;23.39;26.56;99725.53;5097791;28;20048;-76
2021/12/10 01:51:08;;;;;;;10.77;8.00;;;19.70;39.80;;;23.40;26.42;99716.50;5079865;28;20043;-77
2021/12/10 01:53:39;;;;;;;10.77;7.70;;;19.70;39.80;;;23.37;26.65;99700.81;5097306;28;20124;-77
2021/12/10 01:56:12;;;;;;;9.65;7.63;;;19.70;39.80;;;23.37;26.34;99703.47;5097452;28;20112;-76
2021/12/10 01:58:39;;;;;;;9.52;7.22;;;19.70;39.80;;;23.41;26.50;99707.53;5115035;28;20134;-76
2021/12/10 02:01:17;;;;;;;11.95;8.40;;;19.70;39.70;;;23.38;26.55;99698.97;5096943;28;20471;-76
2021/12/10 02:03:46;;;;;;;10.60;8.30;;;19.70;39.70;;;23.41;26.72;99706.72;5080315;28;20047;-76
2021/12/10 02:06:13;;;;;;;11.05;7.95;;;19.70;39.70;;;23.37;26.60;99698.16;5079041;28;20134;-76
2021/12/10 02:08:40;;;;;;;10.73;8.32;;;19.70;39.80;;;23.39;26.52;99697.97;5095511;28;20130;-76
2021/12/10 02:11:07;;;;;;;10.85;8.15;;;19.70;39.70;;;23.40;26.74;99695.16;5095250;28;20040;-76
2021/12/10 02:13:34;;;;;;;9.93;7.70;;;19.70;39.70;;;23.40;26.38;99692.50;5076487;28;20053;-76
2021/12/10 02:16:00;;;;;;;11.35;7.30;;;19.70;39.70;;;23.41;26.48;99701.38;5096808;28;20055;-76
2021/12/10 02:18:26;;;;;;;11.40;8.57;;;19.70;39.70;;;23.40;26.58;99703.19;5095419;28;20052;-77
2021/12/10 02:21:03;;;;;;;10.65;7.95;;;19.70;39.70;;;23.41;26.30;99696.88;5078514;28;20055;-76
2021/12/10 02:23:32;;;;;;;11.45;7.85;;;19.70;39.70;;;23.41;26.60;99690.69;5096741;28;20055;-77
2021/12/10 02:26:01;;;;;;;12.82;8.15;;;19.70;39.70;;;23.39;26.54;99696.19;5095693;28;20560;-77
2021/12/10 02:28:28;;;;;;;10.02;7.68;;;19.70;39.70;;;23.39;26.60;99692.63;5095178;28;20040;-77
2021/12/10 02:30:54;;;;;;;10.88;8.20;;;19.70;39.70;;;23.40;26.39;99686.34;5096828;28;20502;-76
2021/12/10 02:33:21;;;;;;;11.13;7.88;;;19.70;39.70;;;23.37;26.42;99679.47;5079388;28;20075;-77
2021/12/10 02:35:47;;;;;;;9.30;7.05;;;19.70;39.70;;;23.40;26.38;99675.66;5096689;28;20048;-76
2021/12/10 02:38:16;;;;;;;11.02;7.97;;;19.70;39.70;;;23.39;26.43;99672.16;5095019;28;20078;-77
2021/12/10 02:40:43;;;;;;;11.38;8.25;;;19.70;39.70;;;23.41;26.57;99678.19;5096818;28;20369;-76
2021/12/10 02:43:14;;;;;;;10.48;8.02;;;19.70;39.70;;;23.42;26.69;99668.38;5096388;28;20051;-76
2021/12/10 02:45:44;;;;;;;9.70;7.63;;;19.70;39.70;;;23.40;26.50;99676.50;5094805;28;20105;-76
2021/12/10 02:48:11;;;;;;;11.05;8.07;;;19.70;39.70;;;23.42;26.55;99668.38;5094411;28;20044;-77
2021/12/10 02:50:39;;;;;;;12.40;8.95;;;19.70;39.70;;;23.39;26.38;99661.50;5096243;28;20059;-77
2021/12/10 02:53:07;;;;;;;11.85;7.95;;;19.70;39.70;;;23.40;26.58;99665.84;5096039;28;20387;-76
2021/12/10 02:55:36;;;;;;;11.00;8.25;;;19.80;39.70;;;23.44;26.40;99683.25;5113943;28;20100;-76
2021/12/10 02:58:07;;;;;;;11.52;7.72;;;19.80;39.70;;;23.43;26.35;99678.91;5077253;28;20511;-77
2021/12/10 03:00:41;;;;;;;9.85;8.02;;;19.80;39.70;;;23.41;26.51;99667.53;5079196;28;20392;-76
2021/12/10 03:03:09;;;;;;;10.75;7.72;;;19.80;40.20;;;23.45;26.33;99657.41;5114618;28;20399;-76
2021/12/10 03:05:36;;;;;;;10.50;8.05;;;19.80;39.60;;;23.41;26.36;99653.34;5096271;28;20056;-76
2021/12/10 03:08:02;;;;;;;9.43;7.47;;;19.80;39.60;;;23.47;26.56;99658.09;5078989;28;20089;-76
2021/12/10 03:10:31;;;;;;;10.45;7.88;;;19.80;39.60;;;23.47;26.65;99650.09;5094192;28;20056;-76
2021/12/10 03:12:57;;;;;;;9.93;7.47;;;19.80;39.50;;;23.47;26.33;99648.31;5093772;28;20063;-76
2021/12/10 03:15:25;;;;;;;11.57;8.02;;;19.80;39.50;;;23.47;26.57;99650.97;5095203;28;20638;-76
2021/12/10 03:17:52;;;;;;;10.90;8.32;;;19.90;39.60;;;23.47;26.58;99656.31;5094942;28;20087;-76
2021/12/10 03:20:24;;;;;;;12.30;8.05;;;19.90;39.60;;;23.49;26.45;99665.00;5094108;28;20047;-76
2021/12/10 03:22:50;;;;;;;11.43;8.23;;;19.90;39.60;;;23.50;26.38;99655.16;5094399;28;20051;-77
2021/12/10 03:25:17;;;;;;;11.95;8.15;;;19.90;39.50;;;23.52;26.33;99661.19;5093602;28;20131;-76
2021/12/10 03:27:44;;;;;;;11.13;8.25;;;19.90;39.50;;;23.50;26.53;99649.84;5114032;28;20055;-76
2021/12/10 03:30:21;;;;;;;9.02;7.20;;;19.90;39.50;;;23.51;26.45;99650.69;5094343;28;20044;-76
2021/12/10 03:32:47;;;;;;;10.13;7.55;;;19.90;39.50;;;23.53;26.57;99648.72;5113641;28;20449;-76
2021/12/10 03:35:22;;;;;;;11.07;7.82;;;19.90;39.40;;;23.50;26.48;99649.84;5094487;28;20399;-76
2021/12/10 03:37:49;;;;;;;11.05;8.02;;;20.00;39.50;;;23.54;26.73;99647.72;5078066;28;20415;-76
2021/12/10 03:40:17;;;;;;;10.27;7.18;;;20.00;39.50;;;23.54;26.48;99651.25;5111278;28;20127;-76
2021/12/10 03:42:47;;;;;;;10.63;8.05;;;20.00;39.40;;;23.57;26.42;99655.44;5093945;28;20062;-76
2021/12/10 03:45:15;;;;;;;11.15;8.40;;;20.00;39.50;;;23.55;26.41;99650.25;5093531;28;20117;-76
2021/12/10 03:47:42;;;;;;;9.65;7.47;;;20.00;39.40;;;23.56;26.43;99649.28;5093575;28;20047;-77
2021/12/10 03:50:11;;;;;;;9.95;7.30;;;19.90;39.40;;;23.57;26.62;99640.31;5095255;28;20059;-76
2021/12/10 03:52:37;;;;;;;10.07;7.80;;;20.00;39.40;;;23.59;26.35;99643.66;5095205;28;20058;-76
2021/12/10 03:55:05;;;;;;;10.07;7.50;;;20.00;39.40;;;23.60;26.50;99645.31;5095627;28;20479;-76
2021/12/10 03:57:31;;;;;;;10.63;7.97;;;20.00;39.40;;;23.61;26.41;99647.03;5095239;28;20047;-76
2021/12/10 03:59:57;;;;;;;10.48;7.22;;;20.00;39.30;;;23.61;26.27;99643.53;5078205;28;20082;-76
2021/12/10 04:02:23;;;;;;;9.95;7.72;;;20.00;39.40;;;23.60;26.49;99628.47;5078462;28;20039;-76
2021/12/10 04:04:51;;;;;;;11.30;7.82;;;20.00;39.30;;;23.62;26.33;99630.03;5095646;28;20054;-76
2021/12/10 04:07:23;;;;;;;8.55;7.28;;;20.00;39.30;;;23.60;26.57;99639.16;5093967;28;20043;-76
2021/12/10 04:09:51;;;;;;;9.77;7.47;;;20.00;39.40;;;23.64;26.51;99640.56;5094942;28;20050;-76
2021/12/10 04:12:19;;;;;;;8.50;7.03;;;20.00;39.30;;;23.64;26.46;99632.56;5094854;28;20035;-76
2021/12/10 04:14:47;;;;;;;10.90;8.15;;;20.00;39.30;;;23.63;26.39;99628.22;5095026;28;20047;-76
2021/12/10 04:17:14;;;;;;;10.82;7.72;;;20.00;39.30;;;23.64;26.38;99633.41;5092583;28;20036;-76
2021/12/10 04:19:40;;;;;;;10.93;8.20;;;20.00;39.30;;;23.66;26.46;99626.09;5094879;28;20043;-76
2021/12/10 04:22:09;;;;;;;10.40;7.88;;;20.00;39.30;;;23.62;26.36;99621.16;5094721;28;20039;-76
2021/12/10 04:24:38;;;;;;;10.27;7.45;;;20.10;39.30;;;23.68;26.33;99637.47;5076500;28;20040;-76
2021/12/10 04:27:07;;;;;;;10.45;7.78;;;20.10;39.30;;;23.65;26.14;99629.72;5094934;28;20053;-77
2021/12/10 04:29:34;;;;;;;9.50;7.60;;;20.10;39.30;;;23.70;26.34;99631.16;5094657;28;20052;-76
2021/12/10 04:32:03;;;;;;;10.95;7.80;;;20.10;39.30;;;23.68;26.44;99621.44;5094884;28;20498;-76
2021/12/10 04:34:30;;;;;;;10.52;7.72;;;20.00;39.20;;;23.68;26.27;99613.44;5094439;28;20051;-76
2021/12/10 04:37:00;;;;;;;10.38;7.30;;;20.10;39.30;;;23.68;26.43;99612.59;5094934;28;20116;-76
2021/12/10 04:39:27;;;;;;;10.40;7.93;;;20.10;39.30;;;23.71;26.34;99616.84;5093822;28;20075;-76
2021/12/10 04:41:53;;;;;;;10.65;8.00;;;20.10;39.30;;;23.67;26.28;99608.25;5093789;28;20501;-76
2021/12/10 04:44:19;;;;;;;9.88;7.40;;;20.10;39.30;;;23.71;26.20;99616.84;5094581;28;20135;-76
2021/12/10 04:46:45;;;;;;;10.60;7.97;;;20.10;39.30;;;23.71;26.28;99607.00;5094554;28;20047;-77
2021/12/10 04:49:13;;;;;;;10.48;7.82;;;20.10;39.30;;;23.70;26.28;99607.13;5076699;28;20059;-76
2021/12/10 04:51:50;;;;;;;10.57;7.85;;;20.10;39.30;;;23.68;26.20;99607.28;5094793;28;20059;-77
2021/12/10 04:54:18;;;;;;;11.65;8.48;;;20.10;39.30;;;23.72;26.24;99605.97;5094439;28;20043;-77
2021/12/10 04:56:45;;;;;;;9.65;7.60;;;20.10;39.30;;;23.72;26.17;99602.47;5077429;28;20047;-76
2021/12/10 04:59:15;;;;;;;10.55;7.13;;;20.10;39.30;;;23.71;26.28;99598.16;5094393;28;20048;-77
2021/12/10 05:01:42;;;;;;;11.25;7.82;;;20.10;39.30;;;23.72;26.24;99592.63;5094639;28;20536;-76
2021/12/10 05:04:10;;;;;;;10.30;7.57;;;20.10;39.30;;;23.72;26.09;99592.63;5092902;28;20046;-76
2021/12/10 05:06:38;;;;;;;9.65;7.25;;;20.10;39.30;;;23.72;26.24;99589.97;5094243;28;20048;-77
2021/12/10 05:09:09;;;;;;;11.02;7.80;;;20.10;39.30;;;23.68;26.20;99583.25;5094620;28;20075;-76
2021/12/10 05:11:35;;;;;;;;;;;20.10;39.20;;;23.81;26.18;99582.94;5076032;28;20540;-76
2021/12/10 05:14:03;;;;;;;10.25;7.57;;;20.10;39.20;;;23.73;26.17;99575.66;5094172;28;19920;-77
2021/12/10 05:16:29;;;;;;;8.93;7.63;;;20.10;39.20;;;23.75;26.16;99584.34;5094216;28;20424;-77
2021/12/10 05:18:59;;;;;;;11.13;8.15;;;20.10;39.20;;;23.71;26.39;99574.13;5096143;28;20383;-76
2021/12/10 05:21:30;;;;;;;7.22;5.90;;;20.10;39.30;;;23.76;26.21;99569.19;5098174;28;20052;-76
2021/12/10 05:23:57;;;;;;;10.73;8.07;;;20.10;39.30;;;23.73;26.38;99564.16;5098026;28;20072;-76
2021/12/10 05:26:23;;;;;;;10.27;7.72;;;20.10;39.30;;;23.71;26.23;99566.13;5115779;28;20523;-76
2021/12/10 05:28:49;;;;;;;10.43;7.93;;;20.10;39.30;;;23.73;26.19;99566.81;5097181;28;20141;-76
2021/12/10 05:31:15;;;;;;;10.13;7.75;;;20.10;39.30;;;23.73;26.16;99564.97;5080927;28;20055;-76
2021/12/10 05:33:41;;;;;;;9.30;7.40;;;20.10;39.20;;;23.72;26.23;99559.78;5097650;28;20475;-77
2021/12/10 05:36:07;;;;;;;10.02;7.50;;;20.10;39.20;;;23.72;26.14;99559.78;5097365;28;20085;-76
2021/12/10 05:38:33;;;;;;;10.45;8.00;;;20.10;39.30;;;23.72;26.09;99554.44;5097471;28;20055;-77
2021/12/10 05:41:02;;;;;;;9.63;7.25;;;20.10;39.30;;;23.74;26.20;99555.13;5097409;28;20475;-76
2021/12/10 05:43:28;;;;;;;10.30;7.68;;;20.10;39.20;;;23.74;26.18;99550.66;5097291;28;20048;-76
2021/12/10 05:45:54;;;;;;;10.38;8.10;;;20.10;39.20;;;23.68;26.19;99543.22;5097302;28;20048;-76
2021/12/10 05:48:20;;;;;;;9.48;7.78;;;20.10;39.70;;;23.75;26.23;99548.81;5096647;28;20046;-76
2021/12/10 05:50:47;;;;;;;9.98;7.32;;;20.10;39.20;;;23.74;26.09;99541.78;5097105;28;20487;-76
2021/12/10 05:53:15;;;;;;;11.52;8.25;;;20.10;39.20;;;23.75;26.29;99540.81;5080158;28;20429;-76
2021/12/10 05:55:43;;;;;;;10.20;7.80;;;20.10;39.20;;;23.77;26.30;99539.69;5096941;28;20055;-76
2021/12/10 05:58:11;;;;;;;10.95;8.20;;;20.10;39.20;;;23.73;26.22;99527.63;5097574;28;20055;-76
2021/12/10 06:00:44;;;;;;;9.85;7.40;;;20.10;39.20;;;23.75;26.41;99530.13;5097046;28;20044;-76
2021/12/10 06:03:12;;;;;;;10.63;8.02;;;20.10;39.20;;;23.77;26.22;99526.34;5097079;28;20047;-76
2021/12/10 06:05:42;;;;;;;9.73;7.57;;;20.10;39.20;;;23.77;26.09;99525.50;5096705;28;20088;-76
2021/12/10 06:08:09;;;;;;;10.88;7.93;;;20.20;39.20;;;23.77;26.37;99523.69;5079530;28;20073;-76
2021/12/10 06:10:37;;;;;;;10.85;8.00;;;20.10;39.20;;;23.75;26.18;99514.97;5097211;28;20471;-76
2021/12/10 06:13:03;;;;;;;10.68;8.02;;;20.10;39.20;;;23.77;26.12;99514.81;5096766;28;20109;-77
2021/12/10 06:15:30;;;;;;;11.10;7.78;;;20.10;39.20;;;23.76;26.28;99515.81;5092993;28;20040;-77
2021/12/10 06:17:57;;;;;;;10.63;8.02;;;20.20;39.20;;;23.75;26.19;99516.78;5078267;28;20490;-77
2021/12/10 06:20:30;;;;;;;10.35;7.90;;;20.10;39.20;;;23.77;26.09;99512.16;5095739;28;20487;-77
2021/12/10 06:22:59;;;;;;;9.20;7.35;;;20.20;39.20;;;23.75;26.14;99503.44;5096743;28;20051;-77
2021/12/10 06:25:27;;;;;;;10.63;7.88;;;20.10;39.20;;;23.77;26.28;99515.69;5096577;28;20130;-77
2021/12/10 06:27:53;;;;;;;9.20;7.10;;;20.10;39.20;;;23.75;26.19;99498.94;5096178;28;20521;-77
2021/12/10 06:30:24;;;;;;;9.65;7.68;;;20.20;39.20;;;23.76;25.95;99511.31;5078892;28;20036;-77
2021/12/10 06:32:54;;;;;;;10.75;7.32;;;20.10;39.20;;;23.79;26.30;99505.69;5095266;28;20047;-77
2021/12/10 06:35:22;;;;;;;10.38;7.90;;;20.10;39.20;;;23.76;26.08;99503.31;5096573;28;20123;-77
2021/12/10 06:37:48;;;;;;;11.85;8.57;;;20.10;39.20;;;23.79;25.88;99519.03;5096387;28;20048;-77
2021/12/10 06:40:19;;;;;;;11.15;8.73;;;20.10;39.10;;;23.77;26.19;99514.81;5063012;28;20123;-77
2021/12/10 06:42:45;;;;;;;10.65;7.38;;;20.10;39.20;;;23.75;26.04;99512.28;5059152;28;20048;-77
2021/12/10 06:45:15;;;;;;;10.98;7.80;;;20.10;39.20;;;23.78;26.00;99527.19;5077996;28;20070;-78
2021/12/10 06:47:46;;;;;;;11.90;8.27;;;20.10;39.20;;;23.78;26.17;99516.50;5095634;28;20044;-77
2021/12/10 06:50:12;;;;;;;9.82;7.43;;;20.10;39.20;;;23.79;26.08;99518.16;5079647;28;20102;-77
2021/12/10 06:52:37;;;;;;;10.40;7.72;;;20.10;39.20;;;23.78;26.14;99517.34;5079181;28;20546;-77
2021/12/10 06:55:04;;;;;;;11.80;7.78;;;20.10;39.20;;;23.77;26.08;99518.34;5094302;28;20536;-76
2021/12/10 06:57:31;;;;;;;9.50;7.30;;;20.10;39.20;;;23.79;26.10;99524.38;5079201;28;20043;-76
2021/12/10 06:59:57;;;;;;;10.50;7.80;;;20.10;39.20;;;23.74;26.19;99517.78;5076526;28;20917;-77
2021/12/10 07:02:23;;;;;;;8.57;7.40;;;20.20;39.20;;;23.76;26.09;99515.81;5095804;28;20479;-77
2021/12/10 07:04:48;;;;;;;9.50;7.65;;;20.10;39.20;;;23.78;25.93;99520.00;5095827;28;20123;-77
2021/12/10 07:07:14;;;;;;;9.45;7.82;;;20.10;39.10;;;23.78;26.04;99514.66;5079109;28;20481;-77
2021/12/10 07:09:41;;;;;;;8.77;6.85;;;20.10;39.10;;;23.79;26.00;99515.50;5077867;28;20052;-77
2021/12/10 07:12:07;;;;;;;9.45;7.60;;;20.10;39.10;;;23.75;25.93;99509.63;5062671;28;20044;-77
2021/12/10 07:14:34;;;;;;;9.05;6.97;;;20.10;39.10;;;23.79;25.96;99516.38;5095613;28;20140;-77
2021/12/10 07:17:00;;;;;;;8.98;7.07;;;20.10;39.10;;;23.78;25.87;99509.34;5077930;28;20050;-77
2021/12/10 07:19:27;;;;;;;10.75;7.68;;;20.10;39.10;;;23.78;26.07;99514.66;5077452;28;20517;-77
2021/12/10 07:21:53;;;;;;;10.45;7.50;;;20.10;39.10;;;23.78;26.00;99511.16;5075592;28;20044;-77
2021/12/10 07:24:19;;;;;;;10.38;7.38;;;20.10;39.20;;;23.78;26.09;99512.00;5077855;28;20051;-77
2021/12/10 07:26:47;;;;;;;9.40;7.20;;;20.10;39.20;;;23.78;26.21;99513.84;5095356;28;20058;-77
2021/12/10 07:29:13;;;;;;;8.85;7.07;;;20.10;39.20;;;23.78;26.26;99521.84;5094836;28;20398;-76
2021/12/10 07:31:42;;;;;;;9.60;7.05;;;20.10;39.20;;;23.78;26.09;99521.84;5094361;28;20040;-76
2021/12/10 07:34:08;;;;;;;10.00;7.88;;;20.10;39.20;;;23.78;26.04;99512.00;5095355;28;20048;-76
2021/12/10 07:36:37;;;;;;;9.30;7.13;;;20.10;39.20;;;23.77;26.08;99526.34;5078547;28;20054;-77
2021/12/10 07:39:06;;;;;;;9.73;7.45;;;20.20;39.30;;;23.77;26.11;99515.69;5113415;28;20062;-77
2021/12/10 07:41:34;;;;;;;9.95;7.65;;;20.10;39.20;;;23.80;26.21;99517.19;5077778;28;20057;-77
2021/12/10 07:44:00;;;;;;;9.68;7.30;;;20.10;39.20;;;23.77;26.29;99504.13;5095324;28;20518;-76
2021/12/10 07:46:28;;;;;;;9.40;7.30;;;20.10;39.20;;;23.75;26.18;99506.94;5095338;28;20072;-77
2021/12/10 07:48:56;;;;;;;9.70;7.05;;;20.10;39.20;;;23.76;26.26;99500.63;5095430;28;20391;-77
2021/12/10 07:51:28;;;;;;;9.55;7.60;;;20.10;39.20;;;23.76;26.32;99499.81;5093111;28;20051;-76
2021/12/10 07:53:57;;;;;;;9.10;6.78;;;20.20;39.30;;;23.81;26.17;99502.88;5094990;28;20040;-77
2021/12/10 07:56:25;;;;;;;8.88;7.20;;;20.10;39.20;;;23.78;26.32;99501.31;5095717;28;20490;-77
2021/12/10 07:58:52;;;;;;;8.77;6.38;;;20.10;39.20;;;23.78;26.14;99498.66;5077977;28;20485;-77
2021/12/10 08:01:26;;;;;;;9.90;7.47;;;20.10;39.20;;;23.78;26.06;99509.34;5077337;28;20460;-77
2021/12/10 08:03:54;;;;;;;11.55;7.30;;;20.10;39.20;;;23.80;26.15;99496.69;5111963;28;20051;-77
2021/12/10 08:06:22;;;;;;;10.55;6.63;;;20.10;39.20;;;23.81;26.13;99495.69;5094969;28;20394;-77
2021/12/10 08:08:49;;;;;;;10.30;7.20;;;20.20;39.20;;;23.82;26.08;99493.91;5093997;28;20044;-77
2021/12/10 08:11:16;;;;;;;9.05;7.07;;;20.10;39.20;;;23.78;26.05;99493.31;5094906;28;20100;-77
2021/12/10 08:13:42;;;;;;;9.75;7.30;;;20.10;39.10;;;23.81;26.06;99490.38;5076071;28;20051;-76
2021/12/10 08:16:08;;;;;;;10.30;7.43;;;20.20;39.20;;;23.80;26.15;99490.50;5078163;28;20039;-77
2021/12/10 08:18:34;;;;;;;9.98;7.72;;;20.20;39.20;;;23.82;26.20;99491.22;5077618;28;20144;-77
2021/12/10 08:21:00;;;;;;;10.30;7.15;;;20.20;39.20;;;23.80;26.09;99494.00;5061215;28;20082;-77
2021/12/10 08:23:27;;;;;;;9.05;6.88;;;20.20;39.20;;;23.79;26.04;99492.34;5077771;28;20399;-76
2021/12/10 08:25:53;;;;;;;9.63;7.15;;;20.20;39.20;;;23.81;26.08;99493.03;5094943;28;20051;-77
2021/12/10 08:28:22;;;;;;;9.95;7.50;;;20.20;39.20;;;23.81;26.07;99493.03;5112919;28;20048;-77
2021/12/10 08:30:50;;;;;;;9.73;7.70;;;20.20;39.10;;;23.84;26.33;99497.28;5078429;28;20047;-77
2021/12/10 08:33:17;;;;;;;9.95;7.00;;;20.20;39.10;;;23.80;26.08;99488.66;5094447;28;20132;-76
2021/12/10 08:35:50;;;;;;;10.57;6.97;;;20.20;39.10;;;23.82;26.07;99488.56;5094645;28;20185;-77
2021/12/10 08:38:17;;;;;;;8.98;6.85;;;20.20;39.20;;;23.83;26.14;99492.91;5094953;28;20043;-77
2021/12/10 08:40:49;;;;;;;7.85;6.60;;;20.20;39.10;;;23.84;26.10;99498.13;5092420;28;20040;-76
2021/12/10 08:43:16;;;;;;;8.43;6.53;;;20.20;39.20;;;23.83;26.17;99495.59;5092828;28;20044;-76
2021/12/10 08:45:44;;;;;;;9.20;7.00;;;20.20;39.20;;;23.85;26.11;99504.28;5094360;28;20470;-77
2021/12/10 08:48:11;;;;;;;8.95;7.25;;;20.20;39.10;;;23.80;26.16;99493.19;5094611;28;20499;-77
2021/12/10 08:50:39;;;;;;;10.65;7.70;;;20.20;39.10;;;23.85;26.16;99497.09;5112580;28;20488;-77
2021/12/10 08:53:12;;;;;;;8.07;6.93;;;20.20;39.10;;;23.86;26.05;99493.47;5076280;28;20049;-76
2021/12/10 08:55:44;;;;;;;9.38;6.47;;;20.20;39.10;;;23.86;25.94;99498.81;5064646;28;20422;-77
2021/12/10 08:58:11;;;;;;;9.85;7.15;;;20.20;39.10;;;23.85;26.08;99483.75;5080890;28;20079;-76
2021/12/10 09:00:44;;;;;;;8.95;6.85;;;20.30;39.20;;;23.84;26.11;99481.25;5078963;28;20044;-76
2021/12/10 09:03:10;;;;;;;10.38;7.35;;;20.20;39.20;;;23.80;26.30;99472.66;5097604;28;20401;-76
2021/12/10 09:05:37;;;;;;;9.15;7.03;;;20.20;39.10;;;23.85;25.99;99478.41;5079923;28;20128;-76
2021/12/10 09:08:05;;;;;;;8.85;6.55;;;20.20;39.10;;;23.86;26.17;99477.44;5098000;28;20471;-76
2021/12/10 09:10:38;;;;;;;8.88;7.43;;;20.30;39.10;;;23.83;26.17;99483.06;5097640;28;20047;-76
2021/12/10 09:13:14;;;;;;;9.18;7.03;;;20.20;39.10;;;23.88;26.20;99493.31;5063893;28;20491;-76
2021/12/10 09:15:57;;;;;;;10.82;6.85;;;20.20;39.20;;;23.85;25.97;99481.09;5098963;28;20054;-77
2021/12/10 09:18:25;;;;;;;10.30;6.90;;;20.30;39.10;;;23.88;26.17;99485.31;5080503;28;20044;-76
2021/12/10 09:20:55;;;;;;;9.55;6.70;;;20.30;39.10;;;23.90;26.20;99485.16;5097806;28;20501;-77
2021/12/10 09:23:24;;;;;;;10.15;6.97;;;20.30;39.10;;;23.89;26.09;99486.13;5095971;28;20155;-76
2021/12/10 09:25:58;;;;;;;10.25;7.57;;;20.20;39.10;;;23.87;26.06;99491.63;5077377;28;20098;-76
2021/12/10 09:28:26;;;;;;;8.40;6.55;;;20.20;39.10;;;23.89;26.17;99486.13;5080375;28;20100;-77
2021/12/10 09:30:57;;;;;;;9.95;6.90;;;20.20;39.10;;;23.87;26.04;99475.59;5097431;28;20479;-77
2021/12/10 09:33:23;;;;;;;10.13;7.90;;;20.20;39.10;;;23.88;26.25;99474.63;5112980;28;20479;-76
2021/12/10 09:35:50;;;;;;;9.57;6.55;;;20.30;39.10;;;23.87;26.01;99470.28;5078581;28;20040;-76
2021/12/10 09:38:19;;;;;;;9.30;6.68;;;20.30;39.10;;;23.90;25.98;99466.47;5080341;28;20475;-76
2021/12/10 09:40:52;;;;;;;9.23;6.60;;;20.30;39.10;;;23.90;26.34;99485.16;5096688;28;20414;-76
2021/12/10 09:43:19;;;;;;;9.52;6.97;;;20.30;39.10;;;23.90;25.94;99474.47;5096570;28;20055;-76
2021/12/10 09:45:46;;;;;;;9.30;6.70;;;20.30;39.10;;;23.91;25.94;99473.50;5097123;28;20461;-76
2021/12/10 09:48:16;;;;;;;8.70;7.03;;;20.30;39.10;;;23.89;26.13;99460.31;5097070;28;20483;-76
2021/12/10 09:50:55;;;;;;;8.98;6.70;;;20.30;39.10;;;23.86;26.11;99453.41;5097244;28;20052;-77
2021/12/10 09:53:23;;;;;;;8.95;7.18;;;20.30;39.10;;;23.89;25.96;99464.78;5097072;28;20048;-77
2021/12/10 09:55:50;;;;;;;8.68;6.72;;;20.30;39.10;;;23.86;25.97;99461.44;5063339;28;20073;-77
2021/12/10 09:58:17;;;;;;;9.32;6.78;;;20.30;39.10;;;23.88;25.95;99452.44;5096958;28;20528;-76
2021/12/10 10:00:49;;;;;;;9.10;7.03;;;20.30;39.10;;;23.91;26.12;99463.66;5114965;28;20050;-77
2021/12/10 10:03:21;;;;;;;10.45;7.10;;;20.30;39.00;;;23.90;25.93;99451.28;5095893;28;20088;-76
2021/12/10 10:05:47;;;;;;;9.00;6.90;;;20.30;39.10;;;23.92;25.91;99454.66;5095495;28;20048;-77
2021/12/10 10:08:20;;;;;;;10.13;7.00;;;20.30;39.00;;;23.93;26.10;99447.50;5063170;28;20149;-76
2021/12/10 10:10:52;;;;;;;7.95;6.60;;;20.30;39.10;;;23.92;25.97;99448.47;5079264;28;20588;-77
2021/12/10 10:13:29;;;;;;;9.00;6.55;;;20.30;39.00;;;23.88;26.04;99439.94;5096990;28;20044;-77
2021/12/10 10:16:00;;;;;;;8.75;6.68;;;20.30;39.10;;;23.94;26.06;99449.16;5114985;28;20062;-76
2021/12/10 10:18:31;;;;;;;9.55;7.45;;;20.30;39.00;;;23.91;26.04;99436.13;5115279;28;20055;-76
2021/12/10 10:21:05;;;;;;;12.45;7.60;;;20.30;39.00;;;23.92;26.14;99441.28;5096920;28;20100;-77
2021/12/10 10:23:31;;;;;;;9.02;7.05;;;20.30;39.00;;;23.95;26.08;99442.84;5096470;28;20062;-76
2021/12/10 10:26:01;;;;;;;9.48;6.90;;;20.30;39.00;;;23.94;26.05;99439.34;5114738;28;20052;-77
2021/12/10 10:28:27;;;;;;;9.68;6.90;;;20.30;39.00;;;23.92;25.96;99427.94;5096419;28;20052;-77
2021/12/10 10:31:02;;;;;;;8.95;6.43;;;20.30;39.00;;;23.94;26.06;99423.31;5095934;28;20081;-76